Meteorología y climatología de Navarra
Datos de la estación - Meteo Navarra

Estación de Doneztebe-Santesteban GN

Altitud 125 m.


Datos desde el 23/05/2020 hasta el 24/05/2020 en horario solar
Los datos son PROVISIONALES

Anterior Página 1 de 1 Siguiente Descargar: Formato para Excel 2000 o superior   Formato csv   Formato para OpenOffice Calc
Fecha Temperatura Humedad relativa Radiación global Insolación Precipitación Vel. viento 10 m Vel. viento 10 m Dir. viento 10 m
ºC % W/m² s l/m² m/s km/h º
23/05/2020 0:00 16.1 95 0.0 0 0.0 0.7 2.3 274
23/05/2020 0:10 16.1 95 0.0 0 0.0 0.8 3.0 286
23/05/2020 0:20 16.2 95 0.0 0 0.0 0.3 1.2 243
23/05/2020 0:30 16.1 95 0.0 0 0.0 0.6 2.0 202
23/05/2020 0:40 16.3 95 0.0 0 0.0 0.4 1.4 300
23/05/2020 0:50 16.3 95 0.0 0 0.0 0.3 1.2 246
23/05/2020 1:00 16.3 94 0.0 0 0.0 0.1 0.4 262
23/05/2020 1:10 16.3 94 0.0 0 0.0 0.4 1.5 248
23/05/2020 1:20 16.3 94 0.0 0 0.0 0.4 1.3 255
23/05/2020 1:30 16.2 94 0.0 0 0.0 0.1 0.3 287
23/05/2020 1:40 16.3 94 0.0 0 0.0 0.5 1.7 250
23/05/2020 1:50 16.2 94 0.0 0 0.0 0.5 1.7 224
23/05/2020 2:00 16.2 94 0.0 0 0.0 0.8 2.9 337
23/05/2020 2:10 16.3 94 0.0 0 0.0 0.1 0.2 340
23/05/2020 2:20 16.2 94 0.0 0 0.0 0.0 0.0 0
23/05/2020 2:30 16.3 94 0.0 0 0.0 0.1 0.3 286
23/05/2020 2:40 16.3 94 0.0 0 0.0 0.0 0.0 0
23/05/2020 2:50 16.3 94 0.0 0 0.0 0.0 0.0 0
23/05/2020 3:00 16.3 94 0.0 0 0.0 0.1 0.3 288
23/05/2020 3:10 16.3 95 0.0 0 0.0 0.7 2.3 332
23/05/2020 3:20 16.2 95 0.0 0 0.0 0.6 2.0 349
23/05/2020 3:30 16.1 96 0.0 0 0.0 0.2 0.8 347
23/05/2020 3:40 16.1 96 0.0 0 0.0 0.1 0.4 209
23/05/2020 3:50 16.2 97 0.0 0 0.0 0.3 0.9 296
23/05/2020 4:00 16.1 97 0.0 0 0.0 0.7 2.3 216
23/05/2020 4:10 16.0 97 0.0 0 0.0 0.8 2.8 202
23/05/2020 4:20 16.0 96 0.0 0 0.0 0.8 2.7 238
23/05/2020 4:30 16.0 96 0.0 0 0.0 1.0 3.7 285
23/05/2020 4:40 15.9 96 0.0 0 0.0 0.9 3.3 327
23/05/2020 4:50 16.0 95 0.0 0 0.0 0.4 1.5 294
23/05/2020 5:00 16.0 95 0.0 0 0.0 1.0 3.5 313
23/05/2020 5:10 16.0 95 0.0 0 0.0 0.7 2.7 284
23/05/2020 5:20 16.1 95 0.2 0 0.0 1.0 3.5 232
23/05/2020 5:30 16.1 95 3.5 0 0.0 0.4 1.5 296
23/05/2020 5:40 16.3 95 18.1 0 0.0 0.3 1.0 295
23/05/2020 5:50 16.2 95 26.4 0 0.0 0.3 1.0 295
23/05/2020 6:00 16.2 95 31.0 0 0.0 0.8 2.8 298
23/05/2020 6:10 16.3 95 39.3 0 0.0 0.7 2.4 320
23/05/2020 6:20 16.4 95 46.6 0 0.0 0.9 3.1 315
23/05/2020 6:30 16.4 94 52.9 0 0.0 1.1 3.9 323
23/05/2020 6:40 16.5 94 69.4 0 0.0 0.4 1.5 321
23/05/2020 6:50 16.6 94 65.9 0 0.0 0.6 2.1 310
23/05/2020 7:00 16.7 93 53.6 0 0.0 1.0 3.4 324
23/05/2020 7:10 16.6 93 74.2 0 0.0 1.0 3.5 332
23/05/2020 7:20 16.5 94 80.1 0 0.0 1.0 3.7 321
23/05/2020 7:30 16.5 95 110.6 0 0.0 1.0 3.5 312
23/05/2020 7:40 16.6 95 85.7 0 0.0 1.2 4.4 318
23/05/2020 7:50 16.5 95 90.0 0 0.0 1.2 4.1 318
23/05/2020 8:00 16.5 96 108.6 0 0.1 1.6 5.8 316
23/05/2020 8:10 16.4 95 111.8 0 0.2 1.4 4.9 331
23/05/2020 8:20 16.2 95 116.2 0 0.2 1.4 5.1 341
23/05/2020 8:30 16.1 94 138.6 0 0.2 1.2 4.4 350
23/05/2020 8:40 15.9 94 174.7 0 0.1 1.0 3.6 349
23/05/2020 8:50 15.9 93 199.0 0 0.0 1.2 4.5 20
23/05/2020 9:00 15.7 92 205.7 0 0.0 1.7 6.0 13
23/05/2020 9:10 15.6 92 210.7 0 0.0 0.7 2.6 113
23/05/2020 9:20 15.6 92 160.2 0 0.0 1.1 3.9 359
23/05/2020 9:30 15.5 92 161.3 0 0.0 1.2 4.1 36
23/05/2020 9:40 15.3 91 193.7 0 0.1 1.2 4.2 118
23/05/2020 9:50 15.4 92 208.2 0 0.0 1.2 4.2 22
23/05/2020 10:00 15.1 90 163.0 0 0.1 1.1 4.0 40
23/05/2020 10:10 14.9 92 148.0 0 0.2 1.9 6.8 38
23/05/2020 10:20 14.8 91 188.2 0 0.1 1.7 5.9 13
23/05/2020 10:30 14.7 91 178.2 0 0.3 1.7 6.0 57
23/05/2020 10:40 14.6 92 174.2 0 0.1 1.3 4.7 36
23/05/2020 10:50 14.6 91 198.0 0 0.1 0.8 2.8 105
23/05/2020 11:00 14.7 93 257.3 0 0.0 1.1 3.9 121
23/05/2020 11:10 14.7 91 261.6 0 0.1 0.9 3.1 72
23/05/2020 11:20 14.7 91 236.9 0 0.0 1.0 3.5 40
23/05/2020 11:30 14.8 90 353.8 0 0.0 1.6 5.9 28
23/05/2020 11:40 14.9 88 286.4 0 0.0 1.6 5.6 6
23/05/2020 11:50 15.0 90 279.1 0 0.0 1.1 3.9 10
23/05/2020 12:00 14.9 88 324.3 0 0.0 2.0 7.0 5
23/05/2020 12:10 15.1 89 293.4 0 0.0 1.8 6.6 349
23/05/2020 12:20 14.9 90 215.2 0 0.0 2.2 7.9 341
23/05/2020 12:30 14.8 88 156.7 0 0.0 2.7 9.6 340
23/05/2020 12:40 13.9 87 231.0 0 0.0 2.9 10.4 345
23/05/2020 12:50 13.6 89 201.9 0 0.0 2.4 8.7 349
23/05/2020 13:00 13.5 90 215.6 0 0.0 2.7 9.9 349
23/05/2020 13:10 13.5 87 196.2 0 0.0 2.2 8.0 29
23/05/2020 13:20 13.8 85 232.4 0 0.0 1.9 6.8 26
23/05/2020 13:30 14.2 83 242.0 0 0.0 1.4 5.0 29
23/05/2020 13:40 14.4 81 300.3 0 0.0 1.1 4.1 60
23/05/2020 13:50 15.1 81 312.3 0 0.0 0.9 3.1 302
23/05/2020 14:00 15.2 76 297.9 0 0.0 1.8 6.6 344
23/05/2020 14:10 15.2 76 246.1 0 0.0 1.5 5.4 329
23/05/2020 14:20 15.4 78 294.3 0 0.0 0.5 1.9 213
23/05/2020 14:30 15.7 77 282.4 0 0.0 0.8 3.0 203
23/05/2020 14:40 15.8 75 248.2 0 0.0 1.1 3.9 336
23/05/2020 14:50 15.9 75 245.7 0 0.0 1.0 3.7 356
23/05/2020 15:00 15.8 74 165.1 0 0.0 1.1 3.9 43
23/05/2020 15:10 15.9 77 245.3 0 0.0 0.6 2.1 111
23/05/2020 15:20 16.6 75 349.5 0 0.0 0.6 2.0 103
23/05/2020 15:30 16.9 72 229.8 0 0.0 0.3 1.2 86
23/05/2020 15:40 16.4 72 209.7 0 0.0 1.2 4.4 23
23/05/2020 15:50 16.4 74 283.2 68 0.0 1.7 6.3 11
23/05/2020 16:00 16.2 76 101.7 0 0.0 2.2 7.8 1
23/05/2020 16:10 15.4 77 79.5 0 0.0 1.9 6.7 22
23/05/2020 16:20 15.3 77 124.3 0 0.0 1.7 6.2 37
23/05/2020 16:30 15.6 77 263.1 154 0.0 2.3 8.4 31
23/05/2020 16:40 16.2 75 386.3 600 0.0 1.7 5.9 8
23/05/2020 16:50 16.9 71 581.7 600 0.0 1.8 6.5 2
23/05/2020 17:00 17.5 70 540.4 600 0.0 2.5 8.8 342
23/05/2020 17:10 17.3 69 509.5 600 0.0 2.0 7.3 5
23/05/2020 17:20 17.0 70 264.9 240 0.0 2.0 7.1 355
23/05/2020 17:30 16.3 72 181.0 0 0.0 1.9 7.0 21
23/05/2020 17:40 16.1 72 183.2 302 0.0 2.1 7.6 4
23/05/2020 17:50 16.2 70 274.5 600 0.0 2.0 7.2 15
23/05/2020 18:00 16.6 70 299.0 600 0.0 1.8 6.6 343
23/05/2020 18:10 16.5 69 254.3 600 0.0 2.1 7.4 358
23/05/2020 18:20 16.1 69 206.2 600 0.0 2.3 8.2 347
23/05/2020 18:30 16.0 69 180.9 600 0.0 1.3 4.6 344
23/05/2020 18:40 15.7 70 76.7 42 0.0 1.9 6.7 356
23/05/2020 18:50 15.3 72 57.6 0 0.0 1.8 6.3 23
23/05/2020 19:00 15.2 73 46.5 256 0.0 0.7 2.7 30
23/05/2020 19:10 15.2 72 36.8 462 0.0 1.4 4.9 55
23/05/2020 19:20 15.0 74 5.2 0 0.0 1.3 4.6 59
23/05/2020 19:30 14.8 74 0.0 0 0.0 1.8 6.3 43
23/05/2020 19:40 14.8 75 0.0 0 0.0 1.0 3.6 48
23/05/2020 19:50 14.7 76 0.0 0 0.0 1.2 4.2 56
23/05/2020 20:00 14.7 77 0.0 0 0.0 1.3 4.5 56
23/05/2020 20:10 14.6 77 0.0 0 0.0 1.7 6.2 25
23/05/2020 20:20 14.5 78 0.0 0 0.0 1.9 6.8 14
23/05/2020 20:30 14.4 79 0.0 0 0.0 1.7 6.3 39
23/05/2020 20:40 14.4 79 0.0 0 0.0 2.2 7.7 38
23/05/2020 20:50 14.4 79 0.0 0 0.0 2.3 8.1 26
23/05/2020 21:00 14.5 79 0.0 0 0.0 2.2 7.8 27
23/05/2020 21:10 14.5 79 0.0 0 0.0 1.9 6.7 27
23/05/2020 21:20 14.5 79 0.0 0 0.0 2.2 7.9 24
23/05/2020 21:30 14.5 79 0.0 0 0.0 3.0 10.7 21
23/05/2020 21:40 14.4 80 0.0 0 0.0 2.4 8.8 11
23/05/2020 21:50 14.4 80 0.0 0 0.0 2.9 10.5 5
23/05/2020 22:00 14.2 81 0.0 0 0.0 2.0 7.1 336
23/05/2020 22:10 13.9 83 0.0 0 0.0 0.3 1.1 143
23/05/2020 22:20 14.0 82 0.0 0 0.0 0.6 2.3 40
23/05/2020 22:30 14.1 82 0.0 0 0.0 0.7 2.6 69
23/05/2020 22:40 14.2 81 0.0 0 0.0 0.8 2.8 93
23/05/2020 22:50 14.2 80 0.0 0 0.0 1.0 3.7 59
23/05/2020 23:00 14.2 81 0.0 0 0.0 1.4 4.9 76
23/05/2020 23:10 14.2 79 0.0 0 0.0 1.8 6.4 56
23/05/2020 23:20 14.2 79 0.0 0 0.0 0.6 2.3 66
23/05/2020 23:30 14.2 79 0.0 0 0.0 1.2 4.3 51
23/05/2020 23:40 14.1 79 0.0 0 0.0 2.0 7.1 36
23/05/2020 23:50 14.0 79 0.0 0 0.0 1.7 6.0 20
Anterior Página 1 de 1 Siguiente

NOTA: Tipo de datos según el color:
   - Valores diarios o 10 minutos correctos
   - Valores diarios calculados a partir de un número de datos 10 minutos menor que 144 y mayor que 120, o de un número de datos semihorarios menor que 48 y mayor que 40 (caso de las estaciones de INTIA y del Ministerio)
   - Valores diez minutos estimados


Contacto        Enlaces        Aviso legal